Terminal Aerodrome Forecast
Issued by NWS Greer, SC

Home | Current Version | Previous Version | Text Only | Print | Product List | Glossary On
Versions: 1 2 3 4 5 6 7 8 9 10 11 12 13
000
FTUS42 KGSP 221125
TAFGSP
TAF
KGSP 221125Z 2212/2312 03003KT P6SM FEW250
     FM221600 12005KT P6SM FEW200
     FM222300 11003KT P6SM SCT050
     FM230300 09004KT P6SM BKN035
     FM230800 04006KT P6SM -SHRA BKN020 OVC030=

USA.gov is the U.S. government's official web portal to all federal, state and local government web resources and services.